createdAt,value
2019-04-04T00:01:12.929Z,28.65
2019-04-04T00:03:41.435Z,40.60
2019-04-04T00:06:09.906Z,39.25
2019-04-04T00:08:38.412Z,38.58
2019-04-04T00:11:06.886Z,31.90
2019-04-04T00:13:36.823Z,33.48
2019-04-04T00:16:06.495Z,34.00
2019-04-04T00:18:36.087Z,31.33
2019-04-04T00:21:08.579Z,32.75
2019-04-04T00:23:39.307Z,33.83
2019-04-04T00:26:10.867Z,37.55
2019-04-04T00:28:40.123Z,33.58
2019-04-04T00:31:08.747Z,52.17
2019-04-04T00:33:37.376Z,36.33
2019-04-04T00:36:06.017Z,37.38
2019-04-04T00:38:36.046Z,37.23
2019-04-04T00:41:05.158Z,32.85
2019-04-04T00:43:33.764Z,35.10
2019-04-04T00:46:02.404Z,31.65
2019-04-04T00:48:32.156Z,32.88
2019-04-04T00:51:01.359Z,29.52
2019-04-04T00:53:30.002Z,33.80
2019-04-04T00:55:58.606Z,23.67
2019-04-04T00:58:27.240Z,30.97
2019-04-04T01:00:55.858Z,28.73
2019-04-04T01:03:24.479Z,31.97
2019-04-04T01:05:53.125Z,30.45
2019-04-04T01:08:21.764Z,31.90
2019-04-04T01:10:50.387Z,35.10
2019-04-04T01:13:19.007Z,28.52
2019-04-04T01:15:47.617Z,30.10
2019-04-04T01:18:16.320Z,34.80
2019-04-04T01:20:44.929Z,38.48
2019-04-04T01:23:13.502Z,32.53
2019-04-04T01:25:42.038Z,28.98
2019-04-04T01:28:10.679Z,28.05
2019-04-04T01:30:39.216Z,29.12
2019-04-04T01:33:07.768Z,26.80
2019-04-04T01:35:36.708Z,28.20
2019-04-04T01:38:05.416Z,21.17
2019-04-04T01:40:34.032Z,22.67
2019-04-04T01:43:02.642Z,24.92
2019-04-04T01:45:31.284Z,21.27
2019-04-04T01:47:59.842Z,21.02
2019-04-04T01:50:28.465Z,22.35
2019-04-04T01:52:59.281Z,29.35
2019-04-04T01:55:27.413Z,25.97
2019-04-04T01:57:56.016Z,26.93
2019-04-04T02:00:24.681Z,27.85
2019-04-04T02:02:53.226Z,27.17
2019-04-04T02:05:21.773Z,28.75
2019-04-04T02:07:50.324Z,26.52
2019-04-04T02:10:18.864Z,30.20
2019-04-04T02:12:47.370Z,19.90
2019-04-04T02:15:15.853Z,26.05
2019-04-04T02:17:44.326Z,21.33
2019-04-04T02:20:13.067Z,24.23
2019-04-04T02:22:41.759Z,20.12
2019-04-04T02:25:10.722Z,22.50
2019-04-04T02:27:39.198Z,23.83
2019-04-04T02:30:14.858Z,22.95
2019-04-04T02:35:10.121Z,21.37
2019-04-04T02:37:37.839Z,18.82
2019-04-04T02:40:08.681Z,18.87
2019-04-04T02:42:38.262Z,18.85
2019-04-04T02:45:06.995Z,23.80
2019-04-04T02:47:35.497Z,20.75
2019-04-04T02:50:05.402Z,20.32
2019-04-04T02:52:33.909Z,19.65
2019-04-04T02:55:02.457Z,24.65
2019-04-04T02:57:30.964Z,22.07
2019-04-04T02:59:59.521Z,17.75
2019-04-04T03:02:27.996Z,23.70
2019-04-04T03:04:56.564Z,23.02
2019-04-04T03:07:29.852Z,20.27
2019-04-04T03:09:55.500Z,19.98
2019-04-04T03:12:26.287Z,26.20
2019-04-04T03:14:54.201Z,31.17
2019-04-04T03:17:22.746Z,27.87
2019-04-04T03:19:51.249Z,25.10
2019-04-04T03:22:19.737Z,23.18
2019-04-04T03:24:48.213Z,26.55
2019-04-04T03:27:16.677Z,19.60
2019-04-04T03:29:45.197Z,23.52
2019-04-04T03:32:15.971Z,25.35
2019-04-04T03:34:49.704Z,20.32
2019-04-04T03:37:14.075Z,19.35
2019-04-04T03:39:42.596Z,22.37
2019-04-04T03:42:11.092Z,20.50
2019-04-04T03:44:39.640Z,21.60
2019-04-04T03:47:10.429Z,23.83
2019-04-04T03:49:38.335Z,17.10
2019-04-04T03:52:10.011Z,20.72
2019-04-04T03:54:37.100Z,18.55
2019-04-04T03:57:05.602Z,22.32
2019-04-04T03:59:34.068Z,21.42
2019-04-04T04:02:02.600Z,20.85
2019-04-04T04:04:31.141Z,19.92
2019-04-04T04:06:59.628Z,26.68
2019-04-04T04:09:28.117Z,22.90
2019-04-04T04:11:56.585Z,24.90
2019-04-04T04:14:25.089Z,22.85
2019-04-04T04:16:53.572Z,22.65
2019-04-04T04:19:24.194Z,18.92
2019-04-04T04:21:52.249Z,21.23
2019-04-04T04:24:20.744Z,20.75
2019-04-04T04:26:49.243Z,21.60
2019-04-04T04:29:17.713Z,22.62
2019-04-04T04:31:49.326Z,23.47
2019-04-04T04:34:16.418Z,16.42
2019-04-04T04:36:47.658Z,22.32
2019-04-04T04:39:15.099Z,21.68
2019-04-04T04:41:43.611Z,22.02
2019-04-04T04:44:12.072Z,26.35
2019-04-04T04:46:40.559Z,22.65
2019-04-04T04:49:09.053Z,25.25
2019-04-04T04:51:37.522Z,26.12
2019-04-04T04:54:06.029Z,25.02
2019-04-04T04:56:34.501Z,25.65
2019-04-04T04:59:03.006Z,36.75
2019-04-04T05:01:31.570Z,37.85
2019-04-04T05:04:02.416Z,34.73
2019-04-04T05:06:30.252Z,28.83
2019-04-04T05:08:58.730Z,26.80
2019-04-04T05:11:27.216Z,32.35
2019-04-04T05:13:56.083Z,26.37
2019-04-04T05:16:25.898Z,29.85
2019-04-04T05:18:54.388Z,26.42
2019-04-04T05:21:25.085Z,25.12
2019-04-04T05:23:53.106Z,23.73
2019-04-04T05:26:21.582Z,27.37
2019-04-04T05:28:50.046Z,24.18
2019-04-04T05:31:18.817Z,23.00
2019-04-04T05:33:47.371Z,27.32
2019-04-04T05:36:15.870Z,31.27
2019-04-04T05:38:47.137Z,29.82
2019-04-04T05:41:16.451Z,21.60
2019-04-04T05:43:44.967Z,32.70
2019-04-04T05:46:13.459Z,20.88
2019-04-04T05:48:41.921Z,27.77
2019-04-04T05:51:10.441Z,21.20
2019-04-04T05:53:38.929Z,21.52
2019-04-04T05:56:07.509Z,24.50
2019-04-04T05:58:35.980Z,22.05
2019-04-04T06:01:07.627Z,22.98
2019-04-04T06:03:36.509Z,23.92
2019-04-04T06:06:05.048Z,23.12
2019-04-04T06:08:33.548Z,24.45
2019-04-04T06:11:04.795Z,21.93
2019-04-04T06:13:33.272Z,23.22
2019-04-04T06:16:02.061Z,25.40
2019-04-04T06:18:32.037Z,25.95
2019-04-04T06:21:00.518Z,27.62
2019-04-04T06:23:29.024Z,21.15
2019-04-04T06:25:57.588Z,23.00
2019-04-04T06:28:26.084Z,22.27
2019-04-04T06:30:54.560Z,19.95
2019-04-04T06:33:23.044Z,20.37
2019-04-04T06:35:51.634Z,23.27
2019-04-04T06:38:22.954Z,21.68
2019-04-04T06:40:50.311Z,21.27
2019-04-04T06:43:18.800Z,21.27
2019-04-04T06:45:47.541Z,20.88
2019-04-04T06:48:16.025Z,19.98
2019-04-04T06:50:44.527Z,19.62
2019-04-04T06:53:13.180Z,24.23
2019-04-04T06:55:41.663Z,45.95
2019-04-04T06:58:10.138Z,24.23
2019-04-04T07:00:38.647Z,34.13
2019-04-04T07:03:07.143Z,18.70
2019-04-04T07:05:37.930Z,18.07
2019-04-04T07:08:05.939Z,26.07
2019-04-04T07:10:34.413Z,27.60
2019-04-04T07:13:20.155Z,20.43
2019-04-04T07:15:33.099Z,16.87
2019-04-04T07:18:01.612Z,23.83
2019-04-04T07:20:30.080Z,17.87
2019-04-04T07:22:58.565Z,25.23
2019-04-04T07:25:27.032Z,44.93
2019-04-04T07:27:55.521Z,19.07
2019-04-04T07:30:24.071Z,20.55
2019-04-04T07:32:52.585Z,23.95
2019-04-04T07:35:21.260Z,18.45
2019-04-04T07:37:52.925Z,21.55
2019-04-04T07:40:20.426Z,49.30
2019-04-04T07:42:49.022Z,28.70
2019-04-04T07:45:17.544Z,38.23
2019-04-04T07:47:47.429Z,18.70
2019-04-04T07:50:16.364Z,21.07
2019-04-04T07:52:44.849Z,16.00
2019-04-04T07:55:14.881Z,35.60
2019-04-04T07:57:43.351Z,47.00
2019-04-04T08:00:12.503Z,25.97
2019-04-04T08:02:40.973Z,18.37
2019-04-04T08:05:12.924Z,17.98
2019-04-04T08:07:40.097Z,24.85
2019-04-04T08:10:19.850Z,23.42
2019-04-04T08:12:39.237Z,23.70
2019-04-04T08:15:07.984Z,26.00
2019-04-04T08:17:36.638Z,20.10
2019-04-04T08:20:06.780Z,17.92
2019-04-04T08:22:35.322Z,19.85
2019-04-04T08:25:05.045Z,16.67
2019-04-04T08:27:33.509Z,19.25
2019-04-04T08:30:02.041Z,17.50
2019-04-04T08:32:30.523Z,18.70
2019-04-04T08:34:59.060Z,40.95
2019-04-04T08:37:27.594Z,20.92
2019-04-04T08:39:56.064Z,15.55
2019-04-04T08:42:24.600Z,19.02
2019-04-04T08:44:53.050Z,19.40
2019-04-04T08:47:21.582Z,15.30
2019-04-04T08:49:50.169Z,21.05
2019-04-04T08:52:20.794Z,34.20
2019-04-04T08:54:48.917Z,17.60
2019-04-04T08:57:17.383Z,24.85
2019-04-04T08:59:45.950Z,19.92
2019-04-04T09:02:14.430Z,16.15
2019-04-04T09:04:42.935Z,21.07
2019-04-04T09:07:11.437Z,16.07
2019-04-04T09:09:40.013Z,15.18
2019-04-04T09:12:08.600Z,25.17
2019-04-04T09:14:37.086Z,17.42
2019-04-04T09:17:05.631Z,13.83
2019-04-04T09:19:34.137Z,18.62
2019-04-04T09:22:02.608Z,21.27
2019-04-04T09:24:31.105Z,14.73
2019-04-04T09:26:59.573Z,14.47
2019-04-04T09:29:28.060Z,17.90
2019-04-04T09:31:56.532Z,23.55
2019-04-04T09:34:25.015Z,10.45
2019-04-04T09:36:53.519Z,17.20
2019-04-04T09:39:21.991Z,14.10
2019-04-04T09:41:50.463Z,18.48
2019-04-04T09:44:18.933Z,16.00
2019-04-04T09:46:47.419Z,22.02
2019-04-04T09:49:15.901Z,17.92
2019-04-04T09:51:44.384Z,16.00
2019-04-04T09:54:12.862Z,17.90
2019-04-04T09:56:41.338Z,21.17
2019-04-04T09:59:09.838Z,15.70
2019-04-04T10:01:38.476Z,13.70
2019-04-04T10:04:06.987Z,16.90
2019-04-04T10:06:35.463Z,24.37
2019-04-04T10:09:15.688Z,14.80
2019-04-04T10:11:36.473Z,24.35
2019-04-04T10:14:05.131Z,15.50
2019-04-04T10:16:33.587Z,13.05
2019-04-04T10:19:04.095Z,17.95
2019-04-04T10:21:32.590Z,15.63
2019-04-04T10:24:01.095Z,13.45
2019-04-04T10:26:29.743Z,12.90
2019-04-04T10:28:58.211Z,22.00
2019-04-04T10:31:26.727Z,11.75
2019-04-04T10:33:55.263Z,17.90
2019-04-04T10:36:23.760Z,14.05
2019-04-04T10:38:52.238Z,15.78
2019-04-04T10:41:20.737Z,13.35
2019-04-04T10:43:49.213Z,14.35
2019-04-04T10:46:17.715Z,16.90
2019-04-04T10:48:46.212Z,14.05
2019-04-04T10:51:14.689Z,24.82
2019-04-04T10:53:43.159Z,14.70
2019-04-04T10:56:11.643Z,15.75
2019-04-04T10:58:40.146Z,16.82
2019-04-04T11:01:08.614Z,14.93
2019-04-04T11:03:37.125Z,15.43
2019-04-04T11:06:05.611Z,17.27
2019-04-04T11:08:34.077Z,16.25
2019-04-04T11:11:02.956Z,17.37
2019-04-04T11:13:33.891Z,12.63
2019-04-04T11:16:01.655Z,13.93
2019-04-04T11:18:30.142Z,25.60
2019-04-04T11:20:58.631Z,34.90
2019-04-04T11:23:27.108Z,33.45
2019-04-04T11:25:55.570Z,17.37
2019-04-04T11:28:24.826Z,22.52
2019-04-04T11:30:53.295Z,25.08
2019-04-04T11:33:21.810Z,26.48
2019-04-04T11:35:50.354Z,16.87
2019-04-04T11:38:18.860Z,13.40
2019-04-04T11:40:47.398Z,12.28
2019-04-04T11:43:15.939Z,16.87
2019-04-04T11:45:44.403Z,14.60
2019-04-04T11:48:12.870Z,23.07
2019-04-04T11:50:41.354Z,16.52
2019-04-04T11:53:09.862Z,22.05
2019-04-04T11:55:38.366Z,13.62
2019-04-04T11:58:06.843Z,24.40
2019-04-04T12:00:39.504Z,19.00
2019-04-04T12:03:07.991Z,21.40
2019-04-04T12:05:36.530Z,19.10
2019-04-04T12:08:05.208Z,14.33
2019-04-04T12:10:33.780Z,17.35
2019-04-04T12:13:03.132Z,21.90
2019-04-04T12:15:31.602Z,18.02
2019-04-04T12:18:00.097Z,11.88
2019-04-04T12:20:28.596Z,15.23
2019-04-04T12:22:57.075Z,14.73
2019-04-04T12:25:25.628Z,15.85
2019-04-04T12:27:54.122Z,16.57
2019-04-04T12:30:24.288Z,15.85
2019-04-04T12:32:52.760Z,14.68
2019-04-04T12:35:21.280Z,11.38
2019-04-04T12:37:49.747Z,28.00
2019-04-04T12:40:20.709Z,19.50
2019-04-04T12:42:48.605Z,126.12
2019-04-04T12:45:17.215Z,82.97
2019-04-04T12:47:45.889Z,19.07
2019-04-04T12:50:15.191Z,32.23
2019-04-04T12:52:43.673Z,15.80
2019-04-04T12:55:12.511Z,23.62
2019-04-04T12:57:40.980Z,10.13
2019-04-04T13:00:11.131Z,31.70
2019-04-04T13:02:39.765Z,10.18
2019-04-04T13:05:08.991Z,19.30
2019-04-04T13:07:37.569Z,14.25
2019-04-04T13:10:11.773Z,13.45
2019-04-04T13:12:40.360Z,15.72
2019-04-04T13:15:09.571Z,17.55
2019-04-04T13:17:38.144Z,11.90
2019-04-04T13:20:08.274Z,22.95
2019-04-04T13:22:36.952Z,27.30
2019-04-04T13:25:08.189Z,13.62
2019-04-04T13:27:36.869Z,17.32
2019-04-04T13:30:11.305Z,17.73
2019-04-04T13:32:39.949Z,21.27
2019-04-04T13:35:09.588Z,12.10
2019-04-04T13:37:38.083Z,17.85
2019-04-04T13:40:07.352Z,13.05
2019-04-04T13:42:35.806Z,9.63
2019-04-04T13:45:06.258Z,14.07
2019-04-04T13:47:38.230Z,32.13
2019-04-04T13:50:12.235Z,19.12
2019-04-04T13:52:39.956Z,28.47
2019-04-04T13:55:08.664Z,14.65
2019-04-04T13:57:39.272Z,13.45
2019-04-04T14:00:09.401Z,12.00
2019-04-04T14:02:37.952Z,11.40
2019-04-04T14:05:10.004Z,15.53
2019-04-04T14:07:38.692Z,14.55
2019-04-04T14:10:07.801Z,15.35
2019-04-04T14:12:36.289Z,15.13
2019-04-04T14:15:10.406Z,36.63
2019-04-04T14:17:38.881Z,28.32
2019-04-04T14:20:08.928Z,27.30
2019-04-04T14:22:37.459Z,34.80
2019-04-04T14:25:07.507Z,30.75
2019-04-04T14:27:37.408Z,14.78
2019-04-04T14:30:07.346Z,32.30
2019-04-04T14:32:35.838Z,34.75
2019-04-04T14:35:06.596Z,22.65
2019-04-04T14:37:35.075Z,37.88
2019-04-04T14:40:05.224Z,54.73
2019-04-04T14:42:33.703Z,15.03
2019-04-04T14:45:02.889Z,41.83
2019-04-04T14:47:33.097Z,27.30
2019-04-04T14:50:04.627Z,14.83
2019-04-04T14:52:32.093Z,18.60
2019-04-04T14:55:00.556Z,12.05
2019-04-04T14:57:29.067Z,24.15
2019-04-04T14:59:57.541Z,21.00
2019-04-04T15:02:26.104Z,17.70
2019-04-04T15:04:54.614Z,16.85
2019-04-04T15:07:23.209Z,13.25
2019-04-04T15:09:51.753Z,109.83
2019-04-04T15:12:20.214Z,20.37
2019-04-04T15:14:48.779Z,45.28
2019-04-04T15:17:17.290Z,18.32
2019-04-04T15:19:45.766Z,14.55
2019-04-04T15:22:14.248Z,29.57
2019-04-04T15:24:44.462Z,61.40
2019-04-04T15:27:14.097Z,16.12
2019-04-04T15:29:44.082Z,25.60
2019-04-04T15:32:12.522Z,190.43
2019-04-04T15:34:40.985Z,23.57
2019-04-04T15:37:09.497Z,19.90
2019-04-04T15:39:37.960Z,15.95
2019-04-04T15:42:06.529Z,40.60
2019-04-04T15:44:35.001Z,55.43
2019-04-04T15:47:03.609Z,15.98
2019-04-04T15:49:32.083Z,68.20
2019-04-04T15:52:00.560Z,98.30
2019-04-04T15:54:29.042Z,21.70
2019-04-04T15:56:57.529Z,18.00
2019-04-04T15:59:26.004Z,22.65
2019-04-04T16:01:54.584Z,29.07
2019-04-04T16:04:23.050Z,32.90
2019-04-04T16:06:51.719Z,37.95
2019-04-04T16:09:20.188Z,57.15
2019-04-04T16:11:49.999Z,34.95
2019-04-04T16:14:18.793Z,43.17
2019-04-04T16:16:47.296Z,32.65
2019-04-04T16:19:15.809Z,27.52
2019-04-04T16:21:44.280Z,29.18
2019-04-04T16:24:12.849Z,29.45
2019-04-04T16:26:41.335Z,29.10
2019-04-04T16:29:09.848Z,31.05
2019-04-04T16:31:38.336Z,29.87
2019-04-04T16:34:06.808Z,30.70
2019-04-04T16:36:35.325Z,33.78
2019-04-04T16:39:05.984Z,32.67
2019-04-04T16:41:34.471Z,37.20
2019-04-04T16:44:06.178Z,43.25
2019-04-04T16:46:34.686Z,57.50
2019-04-04T16:49:03.230Z,29.45
2019-04-04T16:51:31.731Z,32.85
2019-04-04T16:54:00.222Z,39.18
2019-04-04T16:56:28.731Z,51.68
2019-04-04T16:58:57.238Z,42.58
2019-04-04T17:01:25.719Z,63.28
2019-04-04T17:04:01.575Z,58.33
2019-04-04T17:06:24.966Z,51.00
2019-04-04T17:08:53.464Z,55.80
2019-04-04T17:11:21.945Z,62.53
2019-04-04T17:13:50.454Z,111.03
2019-04-04T17:16:21.233Z,63.55
2019-04-04T17:18:49.150Z,77.65
2019-04-04T17:21:17.627Z,143.97
2019-04-04T17:23:46.138Z,191.75
2019-04-04T17:26:14.623Z,165.45
2019-04-04T17:28:43.410Z,116.67
2019-04-04T17:31:12.525Z,93.70
2019-04-04T17:33:41.154Z,79.22
2019-04-04T17:36:09.732Z,77.42
2019-04-04T17:38:38.490Z,60.40
2019-04-04T17:41:08.120Z,53.45
2019-04-04T17:43:38.024Z,52.13
2019-04-04T17:46:06.954Z,58.35
2019-04-04T17:48:35.612Z,58.60
2019-04-04T17:51:06.495Z,73.33
2019-04-04T17:53:35.454Z,92.72
2019-04-04T17:56:07.526Z,135.63
2019-04-04T18:01:05.654Z,229.93
2019-04-04T18:03:34.228Z,184.67
2019-04-04T18:06:02.707Z,196.30
2019-04-04T18:08:31.220Z,244.40
2019-04-04T18:11:00.028Z,332.18
2019-04-04T18:13:28.526Z,296.70
2019-04-04T18:15:57.019Z,219.50
2019-04-04T18:18:25.506Z,150.60
2019-04-04T18:20:53.996Z,152.20
2019-04-04T18:23:23.511Z,162.07
2019-04-04T18:25:52.092Z,157.50
2019-04-04T18:28:20.580Z,161.22
2019-04-04T18:30:49.073Z,132.03
2019-04-04T18:33:19.725Z,146.32
2019-04-04T18:35:47.800Z,109.20
2019-04-04T18:38:16.306Z,128.93
2019-04-04T18:40:44.779Z,127.40
2019-04-04T18:43:13.268Z,96.78
2019-04-04T18:45:41.825Z,77.25
2019-04-04T18:48:10.292Z,72.60
2019-04-04T18:50:38.780Z,64.35
2019-04-04T18:53:08.897Z,62.62
2019-04-04T18:55:38.225Z,66.77
2019-04-04T18:58:06.782Z,69.10
2019-04-04T19:00:35.355Z,74.53
2019-04-04T19:03:03.997Z,94.87
2019-04-04T19:05:32.632Z,91.12
2019-04-04T19:08:01.115Z,70.10
2019-04-04T19:10:29.666Z,70.10
2019-04-04T19:13:05.354Z,77.15
2019-04-04T19:15:28.447Z,70.92
2019-04-04T19:17:56.956Z,64.47
2019-04-04T19:20:25.492Z,62.13
2019-04-04T19:22:54.001Z,62.70
2019-04-04T19:25:22.611Z,50.03
2019-04-04T19:27:51.301Z,47.08
2019-04-04T19:30:20.013Z,68.42
2019-04-04T19:32:48.615Z,92.17
2019-04-04T19:35:17.658Z,77.70
2019-04-04T19:37:46.131Z,58.10
2019-04-04T19:40:15.571Z,59.08
2019-04-04T19:42:44.132Z,161.70
2019-04-04T19:45:13.586Z,113.17
2019-04-04T19:47:42.051Z,112.00
2019-04-04T19:50:11.498Z,139.43
2019-04-04T19:52:40.120Z,121.17
2019-04-04T19:55:08.867Z,125.35
2019-04-04T19:57:37.346Z,139.10
2019-04-04T20:00:09.064Z,107.65
2019-04-04T20:02:37.575Z,94.62
2019-04-04T20:05:07.385Z,75.83
2019-04-04T20:07:35.853Z,80.35
2019-04-04T20:10:07.104Z,75.95
2019-04-04T20:12:35.573Z,77.17
2019-04-04T20:15:05.857Z,83.00
2019-04-04T20:17:34.337Z,87.47
2019-04-04T20:20:04.377Z,77.65
2019-04-04T20:22:32.893Z,65.10
2019-04-04T20:25:01.369Z,58.20
2019-04-04T20:27:29.852Z,55.17
2019-04-04T20:29:58.398Z,57.45
2019-04-04T20:32:26.879Z,56.15
2019-04-04T20:34:55.403Z,54.50
2019-04-04T20:37:23.892Z,55.43
2019-04-04T20:39:52.367Z,57.65
2019-04-04T20:42:20.877Z,64.55
2019-04-04T20:44:49.367Z,80.70
2019-04-04T20:47:17.875Z,70.10
2019-04-04T20:49:46.352Z,63.83
2019-04-04T20:52:14.828Z,77.10
2019-04-04T20:54:43.314Z,85.90
2019-04-04T20:57:11.784Z,83.60
2019-04-04T20:59:40.270Z,96.92
2019-04-04T21:02:08.746Z,101.45
2019-04-04T21:04:37.287Z,117.80
2019-04-04T21:07:05.837Z,108.67
2019-04-04T21:09:34.306Z,77.03
2019-04-04T21:12:04.451Z,77.70
2019-04-04T21:14:32.924Z,68.55
2019-04-04T21:17:01.437Z,77.22
2019-04-04T21:19:29.926Z,67.30
2019-04-04T21:21:58.428Z,59.20
2019-04-04T21:24:26.900Z,66.72
2019-04-04T21:26:55.412Z,62.05
2019-04-04T21:29:25.390Z,66.10
2019-04-04T21:31:53.860Z,64.22
2019-04-04T21:34:22.369Z,57.48
2019-04-04T21:36:50.841Z,55.65
2019-04-04T21:39:19.351Z,50.20
2019-04-04T21:41:50.138Z,54.67
2019-04-04T21:44:18.643Z,53.10
2019-04-04T21:46:47.148Z,58.35
2019-04-04T21:49:15.617Z,61.80
2019-04-04T21:51:44.102Z,65.22
2019-04-04T21:54:12.573Z,66.77
2019-04-04T21:56:41.075Z,62.25
2019-04-04T21:59:09.562Z,59.23
2019-04-04T22:01:38.544Z,49.80
2019-04-04T22:04:07.086Z,58.13
2019-04-04T22:06:35.564Z,58.28
2019-04-04T22:09:07.629Z,55.88
2019-04-04T22:11:36.098Z,55.17
2019-04-04T22:14:04.602Z,55.30
2019-04-04T22:16:33.152Z,51.05
2019-04-04T22:19:01.657Z,48.52
2019-04-04T22:21:30.127Z,45.03
2019-04-04T22:23:58.624Z,43.17
2019-04-04T22:26:27.105Z,48.52
2019-04-04T22:28:55.601Z,54.33
2019-04-04T22:31:24.077Z,52.40
2019-04-04T22:33:53.478Z,53.73
2019-04-04T22:36:21.947Z,50.20
2019-04-04T22:38:50.490Z,51.15
2019-04-04T22:41:19.060Z,52.48
2019-04-04T22:43:47.539Z,50.67
2019-04-04T22:46:16.041Z,50.65
2019-04-04T22:48:44.518Z,45.08
2019-04-04T22:51:13.024Z,51.37
2019-04-04T22:53:41.532Z,50.20
2019-04-04T22:56:10.000Z,49.77
2019-04-04T22:58:38.572Z,57.62
2019-04-04T23:01:07.045Z,57.98
2019-04-04T23:03:35.547Z,62.93
2019-04-04T23:06:04.092Z,67.78
2019-04-04T23:08:32.595Z,65.50
2019-04-04T23:11:01.070Z,56.58
2019-04-04T23:13:29.611Z,60.20
2019-04-04T23:15:58.087Z,60.85
2019-04-04T23:18:26.562Z,56.60
2019-04-04T23:20:55.129Z,56.35
2019-04-04T23:23:23.599Z,53.78
2019-04-04T23:25:52.075Z,56.42
2019-04-04T23:28:20.550Z,54.15
2019-04-04T23:30:49.049Z,51.20
2019-04-04T23:33:17.522Z,45.73
2019-04-04T23:35:46.065Z,44.23
2019-04-04T23:38:14.595Z,54.70
2019-04-04T23:40:43.009Z,50.30
2019-04-04T23:43:11.518Z,57.65
2019-04-04T23:45:40.000Z,52.08
2019-04-04T23:48:08.512Z,51.73
2019-04-04T23:50:36.976Z,52.90
2019-04-04T23:53:05.462Z,45.80
2019-04-04T23:55:33.934Z,48.70
2019-04-04T23:58:02.444Z,48.28
